Time;durP1;ratioP1;P1;durP2;ratioP2;P2;SDS_P1;SDS_P2;PMS_P1;PMS_P2;Temp;Humidity;BMP_temperature;BMP_pressure;BME280_temperature;BME280_humidity;BME280_pressure;Samples;Min_cycle;Max_cycle;Signal;HPM_P1;HPM_P2
2022/07/12 00:01:18;;;;;;;1.02;0.93;;;19.30;72.20;;;;;;5048096;28;20151;-68
2022/07/12 00:03:43;;;;;;;1.77;1.10;;;19.20;72.20;;;;;;5047765;28;20468;-68
2022/07/12 00:06:09;;;;;;;1.30;1.20;;;19.20;72.30;;;;;;5052002;28;20009;-68
2022/07/12 00:08:35;;;;;;;1.17;1.10;;;19.10;72.90;;;;;;5042133;28;20478;-67
2022/07/12 00:11:00;;;;;;;1.40;1.30;;;19.00;73.20;;;;;;5046509;28;20029;-67
2022/07/12 00:13:26;;;;;;;1.48;1.38;;;18.90;74.10;;;;;;5036070;28;20099;-67
2022/07/12 00:15:51;;;;;;;1.77;1.50;;;18.80;74.50;;;;;;5045672;28;20033;-67
2022/07/12 00:18:17;;;;;;;1.50;1.40;;;18.80;75.30;;;;;;5041510;28;20059;-68
2022/07/12 00:20:43;;;;;;;1.25;1.15;;;18.70;75.80;;;;;;5040434;28;20057;-67
2022/07/12 00:23:08;;;;;;;1.63;1.35;;;18.70;76.60;;;;;;5044676;28;20501;-68
2022/07/12 00:25:34;;;;;;;1.50;1.40;;;18.60;76.50;;;;;;5041232;28;20028;-68
2022/07/12 00:27:59;;;;;;;1.65;1.52;;;18.60;77.00;;;;;;5043160;28;20105;-68
2022/07/12 00:30:25;;;;;;;1.50;1.40;;;18.50;77.00;;;;;;5044214;28;20558;-67
2022/07/12 00:32:50;;;;;;;1.63;1.20;;;18.60;77.20;;;;;;5047238;28;20026;-67
2022/07/12 00:35:19;;;;;;;1.40;1.30;;;18.50;77.30;;;;;;5043473;28;20029;-67
2022/07/12 00:37:44;;;;;;;2.45;1.67;;;18.50;77.50;;;;;;5043580;28;20056;-67
2022/07/12 00:40:11;;;;;;;1.40;1.30;;;18.50;77.90;;;;;;5040157;28;20045;-68
2022/07/12 00:42:40;;;;;;;1.50;1.40;;;18.50;78.00;;;;;;5050960;28;20021;-67
2022/07/12 00:45:07;;;;;;;1.60;1.50;;;18.40;78.10;;;;;;5051693;28;20091;-68
2022/07/12 00:47:40;;;;;;;1.98;1.50;;;18.40;78.20;;;;;;5045733;28;20116;-68
2022/07/12 00:50:12;;;;;;;1.50;1.40;;;18.50;78.10;;;;;;5045747;28;20024;-68
2022/07/12 00:52:38;;;;;;;1.40;1.30;;;18.40;78.20;;;;;;5041545;28;20029;-68
2022/07/12 00:55:05;;;;;;;1.70;1.42;;;18.50;78.20;;;;;;5044247;28;20017;-68
2022/07/12 00:57:33;;;;;;;1.38;1.27;;;18.50;78.10;;;;;;5043723;28;20029;-68
2022/07/12 00:59:58;;;;;;;1.60;1.50;;;18.40;78.20;;;;;;5043704;28;20017;-67
2022/07/12 01:02:24;;;;;;;1.70;1.60;;;18.40;78.60;;;;;;5041647;28;20032;-68
2022/07/12 01:04:51;;;;;;;1.70;1.60;;;18.40;78.70;;;;;;5043561;28;20028;-68
2022/07/12 01:07:17;;;;;;;2.17;1.70;;;18.40;78.80;;;;;;5043173;28;20031;-68
2022/07/12 01:09:43;;;;;;;2.10;1.90;;;18.40;78.70;;;;;;5041281;28;20029;-68
2022/07/12 01:12:12;;;;;;;1.63;1.52;;;18.40;78.60;;;;;;5042250;28;20475;-68
2022/07/12 01:14:40;;;;;;;2.00;1.90;;;18.40;78.70;;;;;;5039286;28;20030;-67
2022/07/12 01:17:07;;;;;;;2.20;2.00;;;18.40;78.60;;;;;;5041706;28;20033;-67
2022/07/12 01:19:33;;;;;;;2.60;1.85;;;18.40;78.80;;;;;;5046555;28;20427;-66
2022/07/12 01:22:01;;;;;;;1.92;1.63;;;18.40;78.90;;;;;;5054276;28;20025;-68
2022/07/12 01:24:27;;;;;;;2.47;2.03;;;18.40;78.90;;;;;;5043267;28;20026;-67
2022/07/12 01:26:53;;;;;;;1.67;1.58;;;18.40;78.90;;;;;;5044400;28;20036;-67
2022/07/12 01:29:19;;;;;;;1.80;1.70;;;18.50;78.70;;;;;;5041848;28;20451;-67
2022/07/12 01:31:46;;;;;;;2.25;1.67;;;18.50;78.40;;;;;;5043250;28;20036;-67
2022/07/12 01:34:12;;;;;;;2.28;2.00;;;18.50;78.10;;;;;;5046481;28;20067;-68
2022/07/12 01:36:39;;;;;;;2.05;1.60;;;18.60;78.00;;;;;;5041630;28;20396;-69
2022/07/12 01:39:04;;;;;;;1.80;1.70;;;18.60;77.80;;;;;;5045744;28;20066;-68
2022/07/12 01:41:32;;;;;;;2.42;1.63;;;18.60;77.60;;;;;;5042553;28;20088;-68
2022/07/12 01:43:58;;;;;;;1.60;1.50;;;18.70;77.40;;;;;;5040662;28;20017;-68
2022/07/12 01:46:24;;;;;;;2.08;1.70;;;18.60;77.20;;;;;;5041601;28;20033;-68
2022/07/12 01:48:49;;;;;;;1.70;1.60;;;18.60;77.10;;;;;;5041547;28;20030;-68
2022/07/12 01:51:15;;;;;;;2.42;1.80;;;18.60;77.00;;;;;;5040194;28;20094;-68
2022/07/12 01:53:41;;;;;;;1.55;1.35;;;18.60;77.00;;;;;;5041418;28;20052;-67
2022/07/12 01:56:07;;;;;;;1.80;1.70;;;18.60;76.80;;;;;;5033566;28;20025;-66
2022/07/12 01:58:32;;;;;;;1.58;1.48;;;18.60;76.70;;;;;;5042491;28;20104;-65
2022/07/12 02:00:58;;;;;;;2.40;1.90;;;18.60;76.70;;;;;;5042066;28;20026;-67
2022/07/12 02:03:24;;;;;;;1.52;1.42;;;18.60;76.60;;;;;;5043894;28;20017;-67
2022/07/12 02:05:50;;;;;;;1.77;1.67;;;18.50;76.70;;;;;;5049314;28;20396;-67
2022/07/12 02:08:15;;;;;;;1.67;1.58;;;18.50;76.60;;;;;;5043859;28;20022;-68
2022/07/12 02:10:42;;;;;;;1.67;1.50;;;18.50;76.70;;;;;;5049641;28;20083;-67
2022/07/12 02:13:08;;;;;;;1.65;1.55;;;18.50;76.70;;;;;;5046622;28;20029;-68
2022/07/12 02:15:33;;;;;;;2.20;1.55;;;18.40;76.70;;;;;;5049094;28;20108;-68
2022/07/12 02:17:59;;;;;;;2.00;1.80;;;18.40;76.70;;;;;;5040368;28;20028;-67
2022/07/12 02:20:25;;;;;;;1.88;1.77;;;18.30;76.60;;;;;;5048485;28;20060;-68
2022/07/12 02:22:50;;;;;;;1.95;1.70;;;18.30;76.50;;;;;;5043041;28;20075;-68
2022/07/12 02:25:16;;;;;;;1.48;1.38;;;18.30;76.50;;;;;;5049406;28;20094;-68
2022/07/12 02:27:43;;;;;;;1.60;1.50;;;18.30;76.50;;;;;;5042494;28;20029;-66
2022/07/12 02:30:10;;;;;;;1.50;1.40;;;18.20;76.60;;;;;;5048446;28;20017;-67
2022/07/12 02:32:37;;;;;;;1.48;1.38;;;18.20;76.60;;;;;;5036957;28;20033;-67
2022/07/12 02:35:04;;;;;;;1.50;1.40;;;18.20;76.60;;;;;;5040983;28;20032;-66
2022/07/12 02:37:30;;;;;;;1.85;1.75;;;18.20;76.50;;;;;;5043549;28;20040;-67
2022/07/12 02:40:53;;;;;;;2.53;1.73;;;18.10;76.50;;;;;;5046354;28;20040;-66
2022/07/12 02:42:42;;;;;;;1.75;1.65;;;18.10;76.70;;;;;;5040963;28;20520;-67
2022/07/12 02:45:11;;;;;;;1.70;1.60;;;18.10;76.80;;;;;;5045435;28;20031;-67
2022/07/12 02:47:39;;;;;;;2.08;1.90;;;18.10;76.80;;;;;;5043591;28;20033;-67
2022/07/12 02:50:05;;;;;;;2.85;1.90;;;18.10;77.00;;;;;;5045488;28;20636;-67
2022/07/12 02:52:31;;;;;;;2.35;2.05;;;18.10;77.00;;;;;;5043595;28;20112;-67
2022/07/12 02:54:56;;;;;;;1.95;1.85;;;18.10;77.00;;;;;;5045527;28;20092;-67
2022/07/12 02:57:22;;;;;;;2.15;1.95;;;18.10;77.00;;;;;;5043831;28;20039;-67
2022/07/12 02:59:47;;;;;;;2.72;2.47;;;18.00;77.00;;;;;;5046352;28;20018;-67
2022/07/12 03:02:13;;;;;;;2.05;1.90;;;18.10;77.10;;;;;;5046446;28;20074;-68
2022/07/12 03:04:38;;;;;;;2.08;1.98;;;18.10;77.10;;;;;;5045877;28;20028;-68
2022/07/12 03:07:04;;;;;;;2.50;2.30;;;18.00;77.00;;;;;;5049788;28;20111;-68
2022/07/12 03:09:30;;;;;;;2.47;2.28;;;18.00;77.30;;;;;;5047366;28;20024;-68
2022/07/12 03:11:55;;;;;;;2.38;1.90;;;18.00;77.30;;;;;;5048159;28;20025;-68
2022/07/12 03:14:21;;;;;;;2.83;2.58;;;18.00;77.40;;;;;;5042125;28;20024;-67
2022/07/12 03:16:46;;;;;;;2.55;2.35;;;18.00;77.40;;;;;;5050860;28;20411;-67
2022/07/12 03:19:12;;;;;;;2.65;2.45;;;18.00;77.40;;;;;;5045250;28;20043;-67
2022/07/12 03:21:37;;;;;;;2.10;2.00;;;18.00;77.30;;;;;;5052591;28;20029;-67
2022/07/12 03:24:03;;;;;;;2.40;2.20;;;18.00;77.30;;;;;;5052169;28;20017;-67
2022/07/12 03:26:29;;;;;;;2.53;2.33;;;18.00;77.30;;;;;;5047941;28;20036;-67
2022/07/12 03:28:55;;;;;;;2.70;2.35;;;18.00;77.30;;;;;;5049838;28;20025;-68
2022/07/12 03:31:20;;;;;;;2.70;2.38;;;18.00;77.40;;;;;;5051280;28;20545;-67
2022/07/12 03:33:46;;;;;;;2.42;2.22;;;18.00;77.40;;;;;;5050212;28;20014;-68
2022/07/12 03:36:13;;;;;;;2.35;2.15;;;18.00;77.40;;;;;;5048827;28;20487;-69
2022/07/12 03:38:39;;;;;;;2.50;2.08;;;17.90;77.40;;;;;;5045671;28;20499;-68
2022/07/12 03:41:05;;;;;;;2.33;2.13;;;17.90;77.50;;;;;;5045453;28;20108;-68
2022/07/12 03:43:30;;;;;;;2.30;2.10;;;17.90;77.60;;;;;;5051248;28;20151;-69
2022/07/12 03:45:56;;;;;;;2.08;1.98;;;17.90;77.60;;;;;;5052455;28;20024;-68
2022/07/12 03:48:21;;;;;;;2.65;2.30;;;17.80;77.70;;;;;;5051858;28;20480;-69
2022/07/12 03:50:49;;;;;;;2.30;2.10;;;17.80;77.60;;;;;;5047865;28;20127;-68
2022/07/12 03:53:14;;;;;;;2.50;2.30;;;17.90;77.70;;;;;;5052460;28;20472;-68
2022/07/12 03:55:40;;;;;;;2.17;2.00;;;17.90;77.70;;;;;;5044727;28;20044;-68
2022/07/12 03:58:05;;;;;;;2.00;1.80;;;17.90;77.60;;;;;;5046717;28;20025;-68
2022/07/12 04:00:31;;;;;;;2.70;2.00;;;17.90;77.50;;;;;;5044323;28;20033;-68
2022/07/12 04:02:56;;;;;;;2.50;2.13;;;17.80;77.50;;;;;;5046071;28;20020;-68
2022/07/12 04:05:25;;;;;;;2.33;2.13;;;17.80;77.60;;;;;;5039565;28;20056;-68
2022/07/12 04:07:53;;;;;;;2.50;2.30;;;17.90;77.70;;;;;;5049548;28;20025;-70
2022/07/12 04:10:19;;;;;;;2.38;2.25;;;17.90;77.70;;;;;;5046624;28;20083;-68
2022/07/12 04:12:45;;;;;;;2.60;2.40;;;17.80;77.90;;;;;;5051169;28;20036;-68
2022/07/12 04:15:10;;;;;;;2.20;2.10;;;17.90;78.10;;;;;;5040322;28;20074;-69
2022/07/12 04:17:36;;;;;;;2.60;2.40;;;17.90;78.10;;;;;;5051722;28;20033;-68
2022/07/12 04:20:02;;;;;;;1.95;1.85;;;18.00;78.10;;;;;;5041880;28;20108;-68
2022/07/12 04:22:28;;;;;;;2.92;2.60;;;18.00;78.10;;;;;;5039887;28;20033;-68
2022/07/12 04:24:54;;;;;;;2.63;2.13;;;18.00;78.10;;;;;;5047651;28;20032;-68
2022/07/12 04:27:19;;;;;;;2.47;2.28;;;18.00;78.00;;;;;;5044265;28;20411;-68
2022/07/12 04:29:45;;;;;;;2.65;2.45;;;18.00;78.00;;;;;;5046310;28;20072;-69
2022/07/12 04:32:11;;;;;;;2.42;2.22;;;18.10;78.00;;;;;;5044861;28;20139;-68
2022/07/12 04:34:36;;;;;;;3.08;1.95;;;18.10;77.90;;;;;;5048102;28;20565;-69
2022/07/12 04:37:02;;;;;;;2.30;2.10;;;18.10;78.00;;;;;;5046054;28;20122;-69
2022/07/12 04:39:28;;;;;;;2.50;2.30;;;18.10;77.90;;;;;;5041881;28;20151;-69
2022/07/12 04:41:53;;;;;;;2.42;2.22;;;18.20;77.90;;;;;;5044798;28;20051;-68
2022/07/12 04:44:19;;;;;;;2.53;2.33;;;18.20;77.90;;;;;;5050464;28;20021;-68
2022/07/12 04:46:44;;;;;;;2.85;2.60;;;18.30;77.80;;;;;;5048880;28;20032;-68
2022/07/12 04:49:10;;;;;;;2.70;2.50;;;18.30;77.90;;;;;;5040708;28;20096;-68
2022/07/12 04:51:36;;;;;;;3.40;3.10;;;18.20;78.10;;;;;;5044425;28;20033;-66
2022/07/12 04:54:01;;;;;;;2.88;2.60;;;18.30;78.30;;;;;;5051148;28;20016;-68
2022/07/12 04:56:27;;;;;;;2.85;2.65;;;18.30;78.20;;;;;;5039439;28;20109;-67
2022/07/12 04:58:52;;;;;;;3.10;2.80;;;18.40;78.20;;;;;;5048968;28;20079;-66
2022/07/12 05:01:18;;;;;;;2.67;2.47;;;18.40;78.20;;;;;;5036390;28;20036;-67
2022/07/12 05:03:43;;;;;;;2.70;2.50;;;18.70;78.10;;;;;;5037633;28;20479;-67
2022/07/12 05:06:09;;;;;;;2.55;2.35;;;19.50;76.80;;;;;;5044095;28;20056;-67
2022/07/12 05:08:35;;;;;;;3.25;2.90;;;20.40;74.30;;;;;;5042821;28;20519;-67
2022/07/12 05:11:00;;;;;;;2.75;2.55;;;21.20;72.10;;;;;;5045570;28;20025;-66
2022/07/12 05:13:26;;;;;;;2.55;2.35;;;21.90;70.10;;;;;;5050150;28;20051;-67
2022/07/12 05:15:51;;;;;;;2.45;2.25;;;22.50;68.30;;;;;;5049170;28;20033;-66
2022/07/12 05:18:17;;;;;;;2.95;2.75;;;23.10;66.40;;;;;;5044764;28;20108;-67
2022/07/12 05:20:42;;;;;;;2.67;2.47;;;23.60;65.00;;;;;;5046711;28;20025;-68
2022/07/12 05:23:08;;;;;;;2.60;2.40;;;23.90;64.00;;;;;;5039639;28;20017;-68
2022/07/12 05:25:34;;;;;;;2.78;2.58;;;24.30;63.20;;;;;;5049067;28;20083;-67
2022/07/12 05:27:59;;;;;;;3.13;2.83;;;24.70;62.20;;;;;;5045032;28;20021;-67
2022/07/12 05:30:25;;;;;;;3.85;3.55;;;25.10;61.30;;;;;;5051344;28;20054;-66
2022/07/12 05:32:51;;;;;;;3.70;3.40;;;25.10;60.50;;;;;;5041378;28;20013;-66
2022/07/12 05:35:17;;;;;;;4.70;3.30;;;25.20;60.60;;;;;;5047755;28;20028;-67
2022/07/12 05:37:42;;;;;;;4.85;3.60;;;25.50;60.40;;;;;;5043010;28;20033;-66
2022/07/12 05:40:09;;;;;;;3.80;3.50;;;25.70;60.00;;;;;;5036190;28;20021;-66
2022/07/12 05:42:34;;;;;;;4.55;4.15;;;26.00;60.30;;;;;;5035706;28;20028;-66
2022/07/12 05:45:00;;;;;;;4.10;3.70;;;25.60;60.00;;;;;;5040462;28;20029;-67
2022/07/12 05:47:25;;;;;;;4.57;3.97;;;25.00;61.20;;;;;;5033144;28;20029;-67
2022/07/12 05:49:51;;;;;;;4.18;3.63;;;24.50;62.50;;;;;;5038385;28;20033;-67
2022/07/12 05:55:01;;;;;;;4.57;3.80;;;23.70;64.80;;;;;;5042411;28;20036;-66
2022/07/12 05:57:26;;;;;;;5.90;5.30;;;23.80;64.90;;;;;;5042106;28;20393;-68
2022/07/12 05:59:52;;;;;;;4.90;4.40;;;24.40;64.00;;;;;;5042152;28;20388;-67
2022/07/12 06:02:17;;;;;;;5.43;4.88;;;25.00;62.60;;;;;;5038595;28;20043;-66
2022/07/12 06:04:43;;;;;;;4.25;3.78;;;25.50;61.20;;;;;;5042699;28;20653;-67
2022/07/12 06:07:09;;;;;;;4.70;4.13;;;25.80;60.50;;;;;;5046227;28;20036;-67
2022/07/12 06:09:34;;;;;;;4.05;3.53;;;25.80;60.00;;;;;;5037626;28;20100;-67
2022/07/12 06:12:00;;;;;;;2.60;2.40;;;25.80;60.00;;;;;;5049229;28;20025;-67
2022/07/12 06:14:25;;;;;;;3.10;2.80;;;25.60;60.20;;;;;;5044269;28;20059;-67
2022/07/12 06:16:51;;;;;;;3.85;3.05;;;25.60;60.70;;;;;;5048072;28;20033;-67
2022/07/12 06:19:16;;;;;;;4.47;3.30;;;25.60;60.90;;;;;;5043784;28;20053;-67
2022/07/12 06:21:42;;;;;;;2.67;2.45;;;25.30;60.90;;;;;;5050078;28;20025;-67
2022/07/12 06:24:07;;;;;;;2.35;2.15;;;25.20;61.60;;;;;;5040371;28;20031;-67
2022/07/12 06:26:33;;;;;;;4.25;2.60;;;25.00;61.70;;;;;;5033850;28;20092;-68
2022/07/12 06:28:58;;;;;;;3.47;2.42;;;24.80;61.90;;;;;;5041325;28;20431;-67
2022/07/12 06:31:25;;;;;;;3.50;2.80;;;24.70;62.00;;;;;;5048366;28;20476;-66
2022/07/12 06:33:50;;;;;;;3.10;2.80;;;24.60;62.40;;;;;;5042562;28;20029;-66
2022/07/12 06:36:16;;;;;;;2.33;2.13;;;24.50;62.60;;;;;;5044451;28;20074;-66
2022/07/12 06:38:41;;;;;;;2.83;2.58;;;24.30;62.90;;;;;;5044783;28;20083;-66
2022/07/12 06:41:07;;;;;;;2.60;2.40;;;24.30;62.90;;;;;;5034720;28;20021;-67
2022/07/12 06:43:33;;;;;;;4.15;3.33;;;24.40;63.10;;;;;;5034106;28;20029;-67
2022/07/12 06:45:58;;;;;;;4.57;3.83;;;24.30;62.60;;;;;;5038088;28;20437;-66
2022/07/12 06:48:24;;;;;;;2.90;2.70;;;24.10;62.50;;;;;;5049799;28;20586;-67
2022/07/12 06:50:49;;;;;;;3.53;3.22;;;23.90;63.10;;;;;;5044439;28;20055;-67
2022/07/12 06:53:15;;;;;;;3.35;3.05;;;23.80;63.20;;;;;;5044200;28;20415;-67
2022/07/12 06:55:43;;;;;;;2.95;2.65;;;23.60;63.70;;;;;;5049041;28;20032;-69
2022/07/12 06:58:08;;;;;;;3.08;2.83;;;23.60;63.80;;;;;;5042320;28;20052;-67
2022/07/12 07:00:34;;;;;;;3.30;2.95;;;23.60;63.90;;;;;;5045860;28;20053;-67
2022/07/12 07:03:00;;;;;;;2.90;2.60;;;23.50;64.00;;;;;;5033417;28;20021;-67
2022/07/12 07:05:25;;;;;;;4.18;2.60;;;23.70;64.10;;;;;;5040807;28;20033;-67
2022/07/12 07:07:51;;;;;;;3.30;3.00;;;23.90;63.80;;;;;;5034169;28;20032;-67
2022/07/12 07:10:17;;;;;;;3.08;2.40;;;24.10;63.50;;;;;;5041423;28;20083;-67
2022/07/12 07:12:42;;;;;;;3.28;2.97;;;24.30;63.40;;;;;;5041293;28;20484;-67
2022/07/12 07:15:08;;;;;;;2.20;2.00;;;24.40;62.70;;;;;;5049370;28;20039;-66
2022/07/12 07:17:34;;;;;;;2.88;2.30;;;24.40;62.70;;;;;;5044772;28;20037;-67
2022/07/12 07:20:00;;;;;;;2.30;2.13;;;24.50;62.40;;;;;;5047280;28;20027;-66
2022/07/12 07:22:26;;;;;;;2.60;2.40;;;24.60;62.90;;;;;;5041600;28;20029;-67
2022/07/12 07:24:51;;;;;;;2.60;2.40;;;24.80;62.10;;;;;;5041341;28;20554;-68
2022/07/12 07:27:17;;;;;;;3.05;2.25;;;24.90;62.00;;;;;;5041344;28;20067;-65
2022/07/12 07:32:27;;;;;;;1.67;1.58;;;25.30;61.40;;;;;;5038277;28;20392;-67
2022/07/12 07:34:52;;;;;;;2.50;2.30;;;25.60;61.10;;;;;;5036692;28;20026;-66
2022/07/12 07:37:18;;;;;;;3.08;1.88;;;25.80;60.40;;;;;;5036904;28;20446;-66
2022/07/12 07:39:43;;;;;;;3.97;3.08;;;25.80;60.10;;;;;;5044378;28;20056;-67
2022/07/12 07:42:09;;;;;;;2.78;2.40;;;25.80;58.70;;;;;;5038147;28;20027;-66
2022/07/12 07:44:34;;;;;;;2.28;2.08;;;25.60;58.90;;;;;;5040725;28;20399;-66
2022/07/12 07:47:00;;;;;;;2.03;1.83;;;25.70;59.10;;;;;;5046828;28;20040;-67
2022/07/12 07:49:26;;;;;;;3.97;2.47;;;25.60;58.70;;;;;;5046308;28;20028;-67
2022/07/12 07:51:51;;;;;;;2.55;2.35;;;25.50;59.20;;;;;;5044717;28;20606;-68
2022/07/12 07:54:17;;;;;;;2.45;2.25;;;25.40;59.10;;;;;;5041500;28;20040;-67
2022/07/12 07:56:43;;;;;;;2.67;1.88;;;25.20;59.40;;;;;;5038510;28;20030;-67
2022/07/12 07:59:08;;;;;;;1.88;1.77;;;25.20;59.90;;;;;;5045247;28;20025;-67
2022/07/12 08:02:07;;;;;;;2.40;1.60;;;25.30;59.80;;;;;;5041699;28;20104;-67
2022/07/12 08:04:26;;;;;;;;;;;25.40;59.60;;;;;;5043310;28;20064;-67
2022/07/12 08:06:51;;;;;;;2.40;2.20;;;25.70;59.40;;;;;;5049162;28;19956;-67
2022/07/12 08:09:17;;;;;;;3.38;3.08;;;25.80;58.90;;;;;;5046505;28;20025;-67
2022/07/12 08:11:43;;;;;;;2.90;2.60;;;25.70;58.40;;;;;;5045132;28;20025;-67
2022/07/12 08:14:10;;;;;;;4.63;2.63;;;25.70;58.50;;;;;;5047549;28;20083;-67
2022/07/12 08:16:36;;;;;;;2.08;1.88;;;25.80;58.60;;;;;;5048003;28;20090;-70
2022/07/12 08:19:03;;;;;;;2.50;2.30;;;25.80;58.50;;;;;;5051208;28;20033;-68
2022/07/12 08:21:29;;;;;;;2.00;1.80;;;25.70;58.30;;;;;;5042183;28;20037;-66
2022/07/12 08:23:55;;;;;;;2.60;2.40;;;25.70;58.30;;;;;;5044586;28;20038;-69
2022/07/12 08:26:21;;;;;;;3.92;2.80;;;25.80;58.20;;;;;;5048073;28;20536;-67
2022/07/12 08:28:46;;;;;;;2.20;2.00;;;25.90;57.80;;;;;;5048263;28;20151;-67
2022/07/12 08:31:15;;;;;;;2.67;2.20;;;25.90;57.80;;;;;;5044702;28;20078;-67
2022/07/12 08:33:41;;;;;;;2.75;2.55;;;26.00;57.50;;;;;;5043674;28;20514;-67
2022/07/12 08:36:08;;;;;;;2.60;2.05;;;25.90;57.10;;;;;;5049477;28;20495;-67
2022/07/12 08:38:36;;;;;;;2.55;2.25;;;26.00;57.20;;;;;;5048396;28;20044;-67
2022/07/12 08:41:03;;;;;;;1.73;1.63;;;26.00;57.00;;;;;;5046118;28;20033;-68
2022/07/12 08:43:28;;;;;;;2.22;1.67;;;26.10;57.30;;;;;;5051799;28;20076;-68
2022/07/12 08:45:54;;;;;;;3.47;3.17;;;26.30;57.20;;;;;;5054104;28;20814;-67
2022/07/12 08:48:19;;;;;;;2.67;2.10;;;26.30;56.70;;;;;;5048993;28;20036;-67
2022/07/12 08:51:03;;;;;;;2.33;2.13;;;26.20;57.00;;;;;;5053059;28;20099;-67
2022/07/12 08:53:29;;;;;;;2.13;1.92;;;26.20;56.80;;;;;;5052656;28;20840;-67
2022/07/12 08:55:55;;;;;;;2.60;2.17;;;26.30;56.90;;;;;;5048237;28;20041;-67
2022/07/12 08:58:21;;;;;;;2.40;2.20;;;26.40;56.60;;;;;;5049680;28;20067;-67
2022/07/12 09:00:46;;;;;;;2.30;2.10;;;26.40;56.40;;;;;;5050415;28;20033;-67
2022/07/12 09:03:14;;;;;;;2.25;2.05;;;26.60;56.30;;;;;;5047254;28;20052;-66
2022/07/12 09:05:56;;;;;;;2.63;2.42;;;26.70;55.90;;;;;;5047694;28;20100;-67
2022/07/12 09:08:32;;;;;;;2.63;2.20;;;26.70;55.60;;;;;;5045462;28;20361;-67
2022/07/12 09:11:05;;;;;;;2.83;1.95;;;26.80;55.50;;;;;;5042792;28;20094;-67
2022/07/12 09:13:54;;;;;;;3.60;3.25;;;26.90;55.60;;;;;;5048429;28;20360;-66
2022/07/12 09:16:25;;;;;;;3.95;2.85;;;26.90;54.60;;;;;;5049918;28;20480;-67
2022/07/12 09:18:51;;;;;;;3.22;2.28;;;26.70;54.40;;;;;;5048107;28;20151;-67
2022/07/12 09:21:29;;;;;;;3.38;1.77;;;26.60;54.80;;;;;;5045619;28;20032;-67
2022/07/12 09:23:59;;;;;;;4.90;2.60;;;26.70;55.00;;;;;;5045273;28;20075;-67
2022/07/12 09:26:32;;;;;;;2.03;1.83;;;26.80;55.10;;;;;;5043455;28;20017;-67
2022/07/12 09:29:11;;;;;;;2.40;1.77;;;27.00;54.90;;;;;;5044637;28;20017;-67
2022/07/12 09:37:20;;;;;;;5.00;3.03;;;27.20;53.80;;;;;;5044720;28;20094;-67
2022/07/12 09:39:47;;;;;;;2.15;1.40;;;27.30;53.30;;;;;;5042102;28;20556;-67
2022/07/12 09:42:13;;;;;;;2.30;1.75;;;27.40;53.60;;;;;;5043587;28;20407;-68
2022/07/12 09:44:40;;;;;;;3.97;2.22;;;27.50;53.40;;;;;;5046092;28;20033;-67
2022/07/12 09:47:15;;;;;;;2.08;1.70;;;27.50;53.00;;;;;;5045206;28;20021;-67
2022/07/12 09:49:42;;;;;;;2.17;1.98;;;27.50;52.90;;;;;;5046345;28;20024;-67
2022/07/12 09:52:27;;;;;;;1.40;1.30;;;27.60;53.00;;;;;;5039967;28;20037;-68
2022/07/12 09:54:54;;;;;;;2.95;2.50;;;27.60;52.90;;;;;;5041428;28;22745;-68
2022/07/12 09:57:27;;;;;;;3.05;1.90;;;27.50;51.40;;;;;;5043441;28;20028;-67
2022/07/12 09:59:54;;;;;;;1.30;1.20;;;27.20;52.10;;;;;;5041933;28;20025;-67
2022/07/12 10:02:21;;;;;;;1.13;1.00;;;27.40;52.60;;;;;;5044360;28;20036;-68
2022/07/12 10:04:48;;;;;;;1.63;1.23;;;27.50;52.50;;;;;;5047215;28;20109;-68
2022/07/12 10:07:15;;;;;;;1.70;1.35;;;27.70;52.00;;;;;;5044528;28;20039;-69
2022/07/12 10:09:47;;;;;;;2.92;1.90;;;27.80;51.50;;;;;;5042510;28;20071;-67
2022/07/12 10:12:16;;;;;;;1.52;1.42;;;28.00;51.50;;;;;;5042917;28;20748;-68
2022/07/12 10:14:43;;;;;;;1.77;1.63;;;27.90;51.20;;;;;;5042560;28;20048;-68
2022/07/12 10:17:10;;;;;;;1.35;1.25;;;28.10;51.20;;;;;;5045372;28;20029;-67
2022/07/12 10:19:36;;;;;;;1.73;1.35;;;28.10;50.90;;;;;;5042258;28;20029;-67
2022/07/12 10:22:04;;;;;;;2.10;1.65;;;28.10;50.60;;;;;;5040834;28;20025;-67
2022/07/12 10:24:32;;;;;;;1.60;1.40;;;28.20;50.10;;;;;;5040886;28;20021;-68
2022/07/12 10:27:14;;;;;;;2.22;1.20;;;28.20;49.90;;;;;;5044450;28;20468;-68
2022/07/12 10:29:44;;;;;;;2.00;1.40;;;28.20;49.40;;;;;;5042411;28;20029;-68
2022/07/12 10:32:34;;;;;;;1.23;0.93;;;28.30;49.10;;;;;;5045247;28;20108;-68
2022/07/12 10:35:02;;;;;;;1.55;1.23;;;28.40;49.10;;;;;;5044531;28;20104;-68
2022/07/12 10:37:28;;;;;;;1.48;1.27;;;28.40;48.20;;;;;;5043328;28;20051;-68
2022/07/12 10:40:13;;;;;;;1.80;1.42;;;28.50;48.70;;;;;;5043154;28;20031;-68
2022/07/12 10:42:40;;;;;;;1.15;0.93;;;28.70;48.50;;;;;;5041228;28;20028;-68
2022/07/12 10:45:23;;;;;;;1.88;0.85;;;28.70;48.60;;;;;;5044756;28;20041;-68
2022/07/12 10:48:08;;;;;;;1.98;0.90;;;28.80;48.70;;;;;;5035941;28;20072;-68
2022/07/12 10:50:45;;;;;;;1.13;1.02;;;29.00;48.10;;;;;;5042063;28;20033;-67
2022/07/12 10:53:22;;;;;;;1.63;1.38;;;28.90;48.30;;;;;;5042895;28;20037;-67
2022/07/12 10:56:15;;;;;;;1.88;1.30;;;29.00;48.00;;;;;;5038814;28;20024;-68
2022/07/12 10:58:45;;;;;;;4.03;1.52;;;28.90;47.90;;;;;;5039814;28;20028;-68
2022/07/12 11:01:19;;;;;;;2.08;1.40;;;29.00;48.00;;;;;;5042420;28;20455;-67
2022/07/12 11:03:49;;;;;;;1.15;1.05;;;29.00;48.00;;;;;;5041884;28;20033;-67
2022/07/12 11:06:24;;;;;;;1.25;0.90;;;29.10;48.10;;;;;;5042557;28;20423;-67
2022/07/12 11:08:55;;;;;;;1.00;0.90;;;29.30;48.20;;;;;;5040453;28;20986;-67
2022/07/12 11:11:22;;;;;;;1.35;1.23;;;29.50;48.00;;;;;;5044619;28;20055;-67
2022/07/12 11:13:48;;;;;;;2.05;1.10;;;29.60;47.30;;;;;;5042264;28;20049;-68
2022/07/12 11:16:14;;;;;;;2.03;1.42;;;29.70;46.80;;;;;;5046792;28;20028;-68
2022/07/12 11:18:40;;;;;;;1.63;1.40;;;29.80;46.00;;;;;;5046990;28;20021;-68
2022/07/12 11:21:06;;;;;;;1.75;1.55;;;29.70;45.80;;;;;;5043279;28;20103;-67
2022/07/12 11:23:32;;;;;;;1.15;1.00;;;29.60;45.60;;;;;;5044620;28;20156;-67
2022/07/12 11:25:59;;;;;;;1.02;0.98;;;29.70;46.10;;;;;;5045056;28;20475;-67
2022/07/12 11:28:27;;;;;;;5.25;1.70;;;29.90;46.20;;;;;;5041773;28;20051;-67
2022/07/12 11:31:00;;;;;;;1.50;1.40;;;30.00;45.80;;;;;;5042231;28;20017;-67
2022/07/12 11:33:32;;;;;;;4.18;2.30;;;30.00;45.60;;;;;;5045419;28;20025;-68
2022/07/12 11:35:58;;;;;;;2.75;1.90;;;30.00;45.20;;;;;;5042949;28;20021;-67
2022/07/12 11:38:25;;;;;;;3.25;2.00;;;29.90;45.30;;;;;;5047252;28;20014;-67
2022/07/12 11:40:58;;;;;;;2.50;1.88;;;30.10;45.40;;;;;;5049873;28;20028;-67
2022/07/12 11:43:25;;;;;;;3.05;1.70;;;30.10;45.20;;;;;;5048903;28;20024;-68
2022/07/12 11:45:51;;;;;;;2.03;1.30;;;30.20;45.20;;;;;;5049966;28;20029;-68
2022/07/12 11:48:17;;;;;;;1.50;1.40;;;30.30;45.10;;;;;;5048380;28;20029;-68
2022/07/12 11:50:44;;;;;;;2.00;1.77;;;30.50;45.00;;;;;;5047548;28;20028;-68
2022/07/12 11:53:24;;;;;;;2.15;1.60;;;30.60;44.80;;;;;;5048374;28;20100;-68
2022/07/12 11:55:56;;;;;;;3.92;1.90;;;30.70;44.70;;;;;;5050801;28;20021;-68
2022/07/12 11:58:22;;;;;;;;;;;30.80;44.30;;;;;;5048032;28;20029;-68
2022/07/12 12:00:48;;;;;;;1.95;1.42;;;30.80;44.30;;;;;;5043366;28;20141;-67
2022/07/12 12:03:16;;;;;;;1.80;1.70;;;30.80;44.30;;;;;;5039751;28;20435;-67
2022/07/12 12:05:42;;;;;;;2.40;1.90;;;30.90;43.90;;;;;;5039812;28;20021;-67
2022/07/12 12:08:12;;;;;;;2.35;2.15;;;30.80;43.50;;;;;;5046450;28;20025;-67
2022/07/12 12:10:41;;;;;;;2.25;1.30;;;30.60;43.70;;;;;;5043672;28;20028;-68
2022/07/12 12:13:17;;;;;;;2.65;2.45;;;30.70;44.30;;;;;;5045813;28;20020;-67
2022/07/12 12:15:59;;;;;;;2.40;2.20;;;30.80;43.00;;;;;;5044504;28;20083;-67
2022/07/12 12:18:34;;;;;;;1.92;1.70;;;30.70;42.30;;;;;;5046492;28;20091;-67
2022/07/12 12:21:02;;;;;;;3.38;3.08;;;30.60;42.80;;;;;;5047602;28;20068;-68
2022/07/12 12:23:28;;;;;;;2.10;1.90;;;30.80;42.40;;;;;;5049913;28;20061;-67
2022/07/12 12:26:09;;;;;;;1.40;1.30;;;30.70;42.70;;;;;;5049729;28;20131;-67
2022/07/12 12:28:45;;;;;;;2.88;1.40;;;30.90;42.90;;;;;;5048976;28;20371;-67
2022/07/12 12:31:11;;;;;;;2.80;1.73;;;31.00;42.40;;;;;;5043577;28;20037;-68
2022/07/12 12:33:41;;;;;;;2.13;1.58;;;31.20;41.80;;;;;;5049583;28;20020;-68
2022/07/12 12:36:23;;;;;;;1.25;1.08;;;31.30;41.40;;;;;;5045552;28;20112;-68
2022/07/12 12:39:00;;;;;;;1.48;1.00;;;31.40;41.30;;;;;;5047201;28;20030;-68
2022/07/12 12:41:41;;;;;;;1.20;1.10;;;31.50;41.00;;;;;;5043919;28;20653;-68
2022/07/12 12:44:12;;;;;;;1.35;1.05;;;31.80;40.60;;;;;;5044338;28;20503;-68
2022/07/12 12:46:45;;;;;;;3.00;2.50;;;31.90;40.30;;;;;;5045357;28;20033;-67
2022/07/12 12:49:11;;;;;;;1.98;1.75;;;31.70;39.60;;;;;;5044163;28;20309;-67
2022/07/12 12:52:03;;;;;;;1.67;1.58;;;31.50;40.50;;;;;;5046378;28;20024;-66
2022/07/12 12:54:37;;;;;;;2.25;1.48;;;31.60;41.10;;;;;;5040225;28;20041;-67
2022/07/12 12:57:04;;;;;;;3.67;2.90;;;31.90;41.40;;;;;;5041921;28;20036;-67
2022/07/12 12:59:30;;;;;;;2.50;2.30;;;32.00;40.80;;;;;;5038118;28;20483;-67
2022/07/12 13:01:56;;;;;;;2.67;1.30;;;31.80;40.80;;;;;;5039116;28;20029;-67